Time;durP1;ratioP1;P1;durP2;ratioP2;P2;SDS_P1;SDS_P2;PMS_P1;PMS_P2;Temp;Humidity;BMP_temperature;BMP_pressure;BME280_temperature;BME280_humidity;BME280_pressure;Samples;Min_cycle;Max_cycle;Signal;HPM_P1;HPM_P2
2022/01/05 00:00:14;;;;;;;5.00;2.20;;;;;;;4.36;99.86;97562.78;4993926;28;20571;-61
2022/01/05 00:02:39;;;;;;;6.32;2.10;;;;;;;4.36;99.43;97562.78;4991729;28;20161;-59
2022/01/05 00:05:06;;;;;;;3.50;2.03;;;;;;;4.37;99.79;97563.59;4992779;28;20033;-59
2022/01/05 00:07:31;;;;;;;4.40;1.77;;;;;;;4.42;99.56;97588.38;4990897;28;20140;-59
2022/01/05 00:09:57;;;;;;;4.22;1.92;;;;;;;4.25;97.90;97612.25;4991215;28;20050;-59
2022/01/05 00:12:22;;;;;;;3.70;1.90;;;;;;;3.92;97.54;97617.50;4987823;28;20428;-59
2022/01/05 00:14:47;;;;;;;4.00;2.88;;;;;;;3.66;98.55;97615.19;4992515;28;20037;-59
2022/01/05 00:17:13;;;;;;;6.15;3.92;;;;;;;3.22;99.46;97633.44;4993825;28;20050;-59
2022/01/05 00:19:39;;;;;;;9.20;4.63;;;;;;;2.98;99.10;97631.88;4989714;28;20046;-59
2022/01/05 00:22:05;;;;;;;6.72;4.68;;;;;;;2.71;99.38;97637.63;4993055;28;20373;-59
2022/01/05 00:24:30;;;;;;;9.48;5.75;;;;;;;2.67;100.00;97631.22;4989419;28;20061;-59
2022/01/05 00:26:56;;;;;;;6.10;4.43;;;;;;;2.50;99.88;97638.22;4994671;28;20042;-59
2022/01/05 00:29:21;;;;;;;8.55;4.70;;;;;;;2.35;100.00;97642.09;4990937;28;20630;-59
2022/01/05 00:31:46;;;;;;;6.40;4.03;;;;;;;2.27;99.44;97653.03;4990029;28;20046;-60
2022/01/05 00:34:12;;;;;;;6.47;3.78;;;;;;;2.16;100.00;97661.72;4992024;28;20292;-59
2022/01/05 00:36:38;;;;;;;8.73;4.60;;;;;;;2.23;100.00;97662.44;4998101;28;20133;-59
2022/01/05 00:39:04;;;;;;;9.20;4.30;;;;;;;2.00;99.75;97662.34;4990422;28;20088;-59
2022/01/05 00:41:29;;;;;;;7.03;4.32;;;;;;;1.92;100.00;97668.75;4990313;28;20042;-59
2022/01/05 00:43:54;;;;;;;8.38;4.88;;;;;;;1.98;100.00;97675.00;4999035;28;20018;-59
2022/01/05 00:46:20;;;;;;;6.97;4.32;;;;;;;1.92;100.00;97674.03;4988505;28;20097;-59
2022/01/05 00:48:45;;;;;;;7.43;4.25;;;;;;;1.80;100.00;97679.31;4992856;28;20354;-59
2022/01/05 00:51:11;;;;;;;6.97;4.10;;;;;;;1.75;99.55;97670.41;5020873;28;20567;-59
2022/01/05 00:53:36;;;;;;;6.72;3.90;;;;;;;1.80;100.00;97679.31;4991384;28;20018;-59
2022/01/05 00:56:02;;;;;;;6.18;3.22;;;;;;;1.69;100.00;97666.84;4997295;28;20225;-59
2022/01/05 00:58:28;;;;;;;7.55;3.80;;;;;;;1.66;100.00;97672.56;4993456;28;20344;-59
2022/01/05 01:00:53;;;;;;;9.02;3.58;;;;;;;1.62;99.88;97677.50;4989484;28;20082;-59
2022/01/05 01:03:19;;;;;;;7.82;3.15;;;;;;;1.56;99.22;97696.06;4997899;28;20440;-59
2022/01/05 01:05:44;;;;;;;12.38;4.57;;;;;;;1.57;100.00;97703.75;4996202;28;20068;-59
2022/01/05 01:08:10;;;;;;;5.05;2.60;;;;;;;1.51;99.76;97704.66;4994249;28;20397;-59
2022/01/05 01:10:35;;;;;;;7.63;3.35;;;;;;;1.44;100.00;97715.28;4991206;28;20050;-59
2022/01/05 01:13:01;;;;;;;4.47;2.90;;;;;;;1.49;100.00;97717.25;4991244;28;20065;-59
2022/01/05 01:15:26;;;;;;;7.72;2.78;;;;;;;1.64;100.00;97725.59;5004123;28;20078;-59
2022/01/05 01:17:52;;;;;;;5.78;2.35;;;;;;;1.62;99.30;97729.50;4998860;28;20100;-59
2022/01/05 01:20:18;;;;;;;4.20;2.10;;;;;;;1.50;98.88;97730.25;4990634;28;20025;-60
2022/01/05 01:22:43;;;;;;;7.68;2.25;;;;;;;1.56;99.46;97739.13;4991704;28;20287;-59
2022/01/05 01:25:09;;;;;;;1.65;1.13;;;;;;;1.44;97.95;97744.31;4989773;28;20108;-59
2022/01/05 01:27:35;;;;;;;2.15;1.40;;;;;;;1.54;98.25;97740.38;4991837;28;20033;-59
2022/01/05 01:30:01;;;;;;;2.58;1.60;;;;;;;1.34;98.05;97759.88;4988895;28;20440;-59
2022/01/05 01:32:26;;;;;;;1.85;1.40;;;;;;;1.34;98.07;97765.16;4989087;28;20053;-59
2022/01/05 01:34:52;;;;;;;1.67;1.50;;;;;;;1.26;97.64;97773.34;4988996;28;20034;-59
2022/01/05 01:37:17;;;;;;;3.15;1.58;;;;;;;1.32;98.25;97782.22;4988040;28;20543;-59
2022/01/05 01:39:42;;;;;;;2.35;1.15;;;;;;;1.25;98.91;97782.31;4991175;28;20037;-59
2022/01/05 01:42:08;;;;;;;2.10;1.40;;;;;;;1.20;98.95;97782.13;4988034;28;20046;-59
2022/01/05 01:44:33;;;;;;;1.00;0.80;;;;;;;1.11;97.74;97791.38;4990084;28;20042;-59
2022/01/05 01:46:59;;;;;;;1.23;1.13;;;;;;;1.10;98.43;97795.00;4997586;28;20042;-59
2022/01/05 01:49:24;;;;;;;2.97;1.30;;;;;;;1.22;99.46;97798.56;4995115;28;20314;-59
2022/01/05 01:51:50;;;;;;;1.00;1.00;;;;;;;1.17;99.21;97806.31;4997012;28;20488;-59
2022/01/05 01:54:15;;;;;;;1.23;1.10;;;;;;;1.12;99.23;97809.59;4995385;28;20033;-59
2022/01/05 01:56:40;;;;;;;2.00;1.33;;;;;;;1.08;99.31;97817.16;4993582;28;20030;-59
2022/01/05 01:59:06;;;;;;;1.00;1.00;;;;;;;1.05;100.00;97819.44;4987296;28;20045;-60
2022/01/05 02:01:31;;;;;;;0.85;0.85;;;;;;;1.06;99.59;97827.13;5002516;28;20034;-60
2022/01/05 02:03:57;;;;;;;0.90;0.90;;;;;;;1.08;98.93;97832.19;4988308;28;20026;-59
2022/01/05 02:06:22;;;;;;;1.05;0.95;;;;;;;0.97;98.10;97844.22;4995150;28;20046;-59
2022/01/05 02:08:48;;;;;;;1.45;1.35;;;;;;;0.99;99.16;97836.13;4991607;28;20038;-59
2022/01/05 02:11:13;;;;;;;2.58;1.38;;;;;;;1.09;98.60;97844.34;4999507;28;20124;-59
2022/01/05 02:13:39;;;;;;;4.18;1.63;;;;;;;1.12;96.27;97841.28;4986126;28;20053;-59
2022/01/05 02:16:05;;;;;;;2.45;1.50;;;;;;;0.99;96.84;97851.94;4991247;28;20051;-59
2022/01/05 02:21:14;;;;;;;5.85;1.95;;;;;;;1.06;95.80;97855.34;4992730;28;20042;-59
2022/01/05 02:23:39;;;;;;;5.22;1.52;;;;;;;0.99;95.83;97857.22;4991628;28;20034;-59
2022/01/05 02:26:07;;;;;;;7.05;1.23;;;;;;;1.14;97.29;97859.53;4988424;28;20092;-59
2022/01/05 02:28:32;;;;;;;12.50;2.75;;;;;;;1.01;95.49;97871.81;5026098;28;20262;-59
2022/01/05 02:30:58;;;;;;;7.78;1.70;;;;;;;0.97;95.47;97878.53;4991173;28;20049;-60
2022/01/05 02:33:23;;;;;;;3.60;1.52;;;;;;;1.00;95.83;97872.00;4986897;28;20057;-60
2022/01/05 02:35:49;;;;;;;5.75;1.77;;;;;;;1.01;94.79;97866.53;4988521;28;20650;-60
2022/01/05 02:38:21;;;;;;;8.93;1.63;;;;;;;1.05;94.79;97883.56;4984508;28;20038;-60
2022/01/05 02:40:46;;;;;;;3.60;1.77;;;;;;;0.99;95.79;97892.31;4991806;28;20049;-60
2022/01/05 02:43:11;;;;;;;5.80;2.00;;;;;;;1.19;98.32;97888.75;4988192;28;20560;-59
2022/01/05 02:45:37;;;;;;;3.55;1.60;;;;;;;1.06;97.11;97898.38;4987843;28;20041;-59
2022/01/05 02:48:03;;;;;;;5.45;2.08;;;;;;;1.05;97.69;97906.50;4989779;28;20026;-59
2022/01/05 02:50:29;;;;;;;6.97;1.50;;;;;;;1.14;97.39;97909.69;4986020;28;20047;-59
2022/01/05 02:52:54;;;;;;;7.47;1.92;;;;;;;1.08;98.43;97906.09;4994130;28;20381;-60
2022/01/05 02:55:20;;;;;;;9.32;2.08;;;;;;;1.26;98.37;97910.63;4983601;28;21103;-59
2022/01/05 02:57:45;;;;;;;4.22;1.90;;;;;;;1.12;97.83;97914.38;4984881;28;20018;-60
2022/01/05 03:00:12;;;;;;;5.85;2.03;;;;;;;1.17;97.37;97919.81;4991496;28;20037;-60
2022/01/05 03:02:37;;;;;;;6.47;2.10;;;;;;;1.26;97.42;97926.44;5001191;28;20021;-59
2022/01/05 03:05:03;;;;;;;14.75;2.22;;;;;;;1.16;97.50;97907.66;5009650;28;20036;-60
2022/01/05 03:07:28;;;;;;;3.90;1.67;;;;;;;1.20;97.46;97895.63;4989785;28;20108;-60
2022/01/05 03:09:54;;;;;;;10.80;2.67;;;;;;;1.20;96.70;97903.53;4992845;28;20100;-59
2022/01/05 03:12:19;;;;;;;9.07;2.58;;;;;;;1.11;96.11;97900.38;4990690;28;20350;-59
2022/01/05 03:14:45;;;;;;;8.52;2.17;;;;;;;1.08;96.65;97917.44;4997976;28;20018;-60
2022/01/05 03:17:10;;;;;;;9.13;2.15;;;;;;;1.00;97.32;97930.91;4987411;28;20504;-60
2022/01/05 03:19:35;;;;;;;9.95;2.45;;;;;;;1.02;96.76;97936.78;4993335;28;20481;-59
2022/01/05 03:22:01;;;;;;;9.45;2.60;;;;;;;1.13;94.52;97939.75;4989798;28;20034;-59
2022/01/05 03:24:26;;;;;;;8.82;2.95;;;;;;;1.23;93.06;97945.38;4986393;28;20042;-59
2022/01/05 03:26:52;;;;;;;12.90;2.90;;;;;;;1.24;91.36;97952.25;4994517;28;20041;-59
2022/01/05 03:29:17;;;;;;;11.40;3.53;;;;;;;1.29;91.52;97953.22;4989455;28;20030;-59
2022/01/05 03:31:43;;;;;;;12.88;3.10;;;;;;;1.35;91.04;97948.94;4992030;28;20042;-59
2022/01/05 03:34:16;;;;;;;7.10;2.80;;;;;;;1.36;90.51;97963.75;4985068;28;20085;-59
2022/01/05 03:36:41;;;;;;;13.52;3.05;;;;;;;1.31;90.84;97966.22;4984362;28;20136;-59
2022/01/05 03:39:07;;;;;;;8.05;3.20;;;;;;;1.28;91.02;97962.19;4988516;28;20042;-59
2022/01/05 03:41:32;;;;;;;9.07;3.05;;;;;;;1.29;91.68;97970.91;4996223;28;20038;-59
2022/01/05 03:43:57;;;;;;;12.85;3.13;;;;;;;1.28;91.22;97967.47;4989181;28;20041;-59
2022/01/05 03:46:23;;;;;;;12.85;3.17;;;;;;;1.29;90.99;97974.34;4991070;28;20069;-59
2022/01/05 03:48:48;;;;;;;13.73;2.75;;;;;;;1.26;91.22;97979.25;4998723;28;20077;-59
2022/01/05 03:51:14;;;;;;;7.97;2.58;;;;;;;1.22;90.77;98002.63;4993020;28;20046;-59
2022/01/05 03:53:39;;;;;;;8.05;3.35;;;;;;;1.28;91.51;97998.31;4987609;28;20025;-59
2022/01/05 03:56:05;;;;;;;11.02;2.53;;;;;;;1.21;91.30;98003.63;4993970;28;20038;-59
2022/01/05 03:58:30;;;;;;;11.35;3.28;;;;;;;1.18;90.60;98016.47;4988078;28;20543;-59
2022/01/05 04:00:55;;;;;;;12.95;2.72;;;;;;;1.21;89.28;98024.75;4986803;28;20108;-59
2022/01/05 04:03:21;;;;;;;9.13;2.92;;;;;;;1.33;90.54;98026.75;4985080;28;20050;-59
2022/01/05 04:05:46;;;;;;;11.88;3.17;;;;;;;1.26;89.07;98026.75;4988790;28;20038;-59
2022/01/05 04:08:12;;;;;;;11.55;2.90;;;;;;;1.32;87.75;98039.09;4984537;28;20077;-59
2022/01/05 04:10:37;;;;;;;10.75;2.42;;;;;;;1.24;86.46;98039.34;5024317;28;20085;-59
2022/01/05 04:13:04;;;;;;;16.00;3.55;;;;;;;1.24;86.35;98050.72;4989602;28;20028;-60
2022/01/05 04:15:29;;;;;;;10.02;2.80;;;;;;;1.13;87.11;98050.59;4994116;28;20046;-59
2022/01/05 04:17:55;;;;;;;7.45;2.58;;;;;;;1.03;86.62;98049.22;4996803;28;20436;-61
2022/01/05 04:20:20;;;;;;;11.35;2.90;;;;;;;1.10;85.11;98049.19;4991995;28;20488;-59
2022/01/05 04:22:46;;;;;;;10.57;2.50;;;;;;;1.05;82.78;98060.38;4982300;28;20026;-59
2022/01/05 04:25:11;;;;;;;7.85;2.28;;;;;;;0.90;80.92;98067.75;5023857;28;20105;-59
2022/01/05 04:27:36;;;;;;;10.50;3.05;;;;;;;0.78;81.61;98072.03;4993757;28;20108;-59
2022/01/05 04:30:04;;;;;;;13.95;2.55;;;;;;;0.66;82.15;98071.06;4992411;28;20096;-60
2022/01/05 04:32:29;;;;;;;7.85;2.88;;;;;;;0.74;81.48;98081.38;4992804;28;20121;-59
2022/01/05 04:34:55;;;;;;;10.75;3.13;;;;;;;0.67;81.64;98091.13;4990889;28;20778;-59
2022/01/05 04:37:20;;;;;;;8.98;3.08;;;;;;;0.59;82.89;98095.59;4991045;28;20046;-59
2022/01/05 04:39:46;;;;;;;9.00;3.10;;;;;;;0.52;84.37;98097.44;4998721;28;20105;-59
2022/01/05 04:42:11;;;;;;;7.53;2.85;;;;;;;0.54;84.16;98108.59;4987745;28;20038;-59
2022/01/05 04:44:36;;;;;;;8.27;2.90;;;;;;;0.46;84.96;98105.38;4991198;28;20041;-59
2022/01/05 04:47:02;;;;;;;11.35;3.08;;;;;;;0.50;84.43;98107.41;4992290;28;20038;-59
2022/01/05 04:49:28;;;;;;;8.38;3.33;;;;;;;0.46;84.96;98111.44;4992638;28;20077;-59
2022/01/05 04:51:53;;;;;;;6.53;2.75;;;;;;;0.51;84.27;98122.19;4989882;28;20065;-59
2022/01/05 04:54:18;;;;;;;8.00;3.20;;;;;;;0.46;84.02;98121.19;4993264;28;20053;-59
2022/01/05 04:56:44;;;;;;;11.48;3.15;;;;;;;0.33;84.16;98129.91;4990715;28;20049;-61
2022/01/05 04:59:09;;;;;;;16.35;3.17;;;;;;;0.30;83.82;98130.31;5021868;28;20030;-60
2022/01/05 05:01:35;;;;;;;8.00;3.05;;;;;;;0.29;83.18;98141.88;4987791;28;20042;-60
2022/01/05 05:04:00;;;;;;;9.93;3.25;;;;;;;0.17;83.76;98134.56;4987833;28;20023;-59
2022/01/05 05:06:26;;;;;;;14.32;3.70;;;;;;;0.06;84.98;98140.44;4990791;28;20062;-61
2022/01/05 05:08:51;;;;;;;5.32;2.72;;;;;;;-0.03;85.70;98133.72;4995710;28;20026;-59
2022/01/05 05:11:17;;;;;;;11.02;3.08;;;;;;;-0.04;84.44;98138.19;5006190;28;20038;-60
2022/01/05 05:13:42;;;;;;;7.93;2.75;;;;;;;-0.05;85.37;98139.22;4990175;28;20046;-59
2022/01/05 05:16:07;;;;;;;15.77;3.30;;;;;;;-0.16;84.70;98133.72;4991332;28;20123;-59
2022/01/05 05:18:33;;;;;;;11.77;3.13;;;;;;;-0.24;85.40;98148.69;4991451;28;20045;-59
2022/01/05 05:20:59;;;;;;;14.93;3.40;;;;;;;-0.19;85.15;98142.84;4994704;28;20097;-60
2022/01/05 05:23:24;;;;;;;9.48;3.40;;;;;;;-0.30;86.32;98149.50;4992772;28;20038;-59
2022/01/05 05:25:50;;;;;;;5.35;2.58;;;;;;;-0.34;86.82;98147.47;4987293;28;20096;-61
2022/01/05 05:28:15;;;;;;;12.77;3.08;;;;;;;-0.26;88.90;98144.63;4997979;28;20456;-60
2022/01/05 05:30:41;;;;;;;13.32;2.95;;;;;;;-0.40;87.21;98154.34;4987014;28;20129;-60
2022/01/05 05:33:06;;;;;;;11.95;3.05;;;;;;;-0.43;86.62;98152.09;4973439;28;20030;-60
2022/01/05 05:35:32;;;;;;;10.20;3.20;;;;;;;-0.46;86.85;98152.50;4968203;28;20042;-60
2022/01/05 05:37:57;;;;;;;12.40;3.60;;;;;;;-0.45;86.97;98162.84;4978852;28;20027;-60
2022/01/05 05:40:23;;;;;;;20.75;10.38;;;;;;;-0.44;86.75;98158.38;4985536;28;20046;-60
2022/01/05 05:42:48;;;;;;;57.58;33.08;;;;;;;-0.53;87.63;98172.69;4969160;28;20045;-60
2022/01/05 05:45:14;;;;;;;20.58;8.98;;;;;;;-0.58;88.07;98167.22;4973874;28;20811;-60
2022/01/05 05:47:39;;;;;;;13.50;4.72;;;;;;;-0.48;87.63;98168.47;4994995;28;20034;-59
2022/01/05 05:50:05;;;;;;;11.98;4.18;;;;;;;-0.53;87.33;98167.44;4977423;28;20022;-59
2022/01/05 05:52:30;;;;;;;25.13;4.97;;;;;;;-0.59;88.20;98176.13;4989261;28;20026;-60
2022/01/05 05:54:56;;;;;;;19.70;4.50;;;;;;;-0.62;88.52;98176.50;4984460;28;20026;-60
2022/01/05 05:57:21;;;;;;;16.17;6.40;;;;;;;-0.55;88.27;98172.09;4987550;28;20046;-59
2022/01/05 05:59:47;;;;;;;11.10;4.80;;;;;;;-0.59;87.43;98176.94;4995475;28;20026;-59
2022/01/05 06:02:12;;;;;;;14.35;4.57;;;;;;;-0.59;87.28;98174.31;5015635;28;20080;-59
2022/01/05 06:04:38;;;;;;;17.08;4.80;;;;;;;-0.56;88.07;98171.28;4991378;28;20045;-59
2022/01/05 06:07:03;;;;;;;13.10;5.47;;;;;;;-0.66;88.29;98182.16;4994813;28;20519;-61
2022/01/05 06:09:29;;;;;;;9.15;3.20;;;;;;;-0.75;89.15;98178.09;4995600;28;20365;-59
2022/01/05 06:11:54;;;;;;;7.82;4.38;;;;;;;-0.68;87.59;98178.91;4992925;28;20049;-59
2022/01/05 06:14:20;;;;;;;15.65;3.17;;;;;;;-0.54;85.61;98179.00;4993575;28;20048;-59
2022/01/05 06:16:45;;;;;;;21.52;3.75;;;;;;;-0.48;84.26;98188.72;4995878;28;20053;-59
2022/01/05 06:19:11;;;;;;;16.27;3.45;;;;;;;-0.48;84.97;98191.34;4998742;28;20033;-60
2022/01/05 06:21:36;;;;;;;16.02;3.55;;;;;;;-0.51;84.16;98199.66;4996454;28;20041;-59
2022/01/05 06:24:02;;;;;;;8.93;2.83;;;;;;;-0.55;84.64;98201.88;4997958;28;20042;-59
2022/01/05 06:26:27;;;;;;;12.32;4.15;;;;;;;-0.48;84.52;98209.78;4992950;28;20102;-59
2022/01/05 06:28:52;;;;;;;19.60;3.72;;;;;;;-0.55;84.26;98219.47;4997056;28;20033;-59
2022/01/05 06:31:18;;;;;;;14.73;2.90;;;;;;;-0.54;85.16;98210.56;4994452;28;20408;-59
2022/01/05 06:33:43;;;;;;;10.38;3.78;;;;;;;-0.57;84.05;98216.25;4988843;28;20336;-59
2022/01/05 06:36:09;;;;;;;11.52;3.70;;;;;;;-0.49;83.59;98226.59;4990339;28;20046;-61
2022/01/05 06:38:34;;;;;;;11.73;3.42;;;;;;;-0.57;84.57;98232.03;5006698;28;20747;-59
2022/01/05 06:41:00;;;;;;;9.95;2.88;;;;;;;-0.43;85.13;98237.13;4998060;28;20042;-59
2022/01/05 06:43:25;;;;;;;12.98;3.10;;;;;;;-0.62;84.93;98231.78;4990043;28;20061;-59
2022/01/05 06:45:50;;;;;;;12.82;2.90;;;;;;;-0.54;84.68;98231.63;4987898;28;20041;-59
2022/01/05 06:48:16;;;;;;;14.95;2.90;;;;;;;-0.68;85.53;98230.75;4989106;28;20033;-59
2022/01/05 06:50:41;;;;;;;18.95;3.05;;;;;;;-0.60;83.59;98233.22;4993347;28;20053;-60
2022/01/05 06:53:07;;;;;;;19.23;3.50;;;;;;;-0.63;84.08;98238.06;4981464;28;20026;-59
2022/01/05 06:55:32;;;;;;;11.85;3.28;;;;;;;-0.73;83.92;98233.94;4992825;28;20570;-61
2022/01/05 06:57:58;;;;;;;19.92;4.00;;;;;;;-0.83;84.88;98244.00;4990046;28;20038;-61
2022/01/05 07:00:24;;;;;;;18.65;4.07;;;;;;;-0.83;84.95;98243.22;4990205;28;20053;-59
2022/01/05 07:02:49;;;;;;;19.33;3.38;;;;;;;-0.85;83.83;98250.47;4993075;28;20030;-59
2022/01/05 07:05:15;;;;;;;28.48;10.77;;;;;;;-0.80;83.34;98254.19;5016726;28;20030;-59
2022/01/05 07:07:41;;;;;;;27.17;8.40;;;;;;;-0.64;82.30;98263.56;4991384;28;20038;-61
2022/01/05 07:10:07;;;;;;;17.85;9.48;;;;;;;-0.68;83.35;98262.31;4991090;28;20037;-59
2022/01/05 07:12:39;;;;;;;30.75;13.93;;;;;;;-0.78;83.08;98275.81;4991368;28;20029;-60
2022/01/05 07:15:04;;;;;;;18.67;4.78;;;;;;;-0.79;83.01;98271.56;4989238;28;20034;-61
2022/01/05 07:17:33;;;;;;;23.30;4.68;;;;;;;-0.71;83.81;98279.31;5012193;28;20037;-61
2022/01/05 07:19:58;;;;;;;20.83;4.35;;;;;;;-0.67;82.87;98280.56;4992249;28;20049;-62
2022/01/05 07:22:24;;;;;;;14.05;2.58;;;;;;;-0.69;82.66;98287.03;4988573;28;20042;-61
2022/01/05 07:24:50;;;;;;;13.50;2.90;;;;;;;-0.72;82.92;98277.69;4988732;28;20039;-61
2022/01/05 07:27:16;;;;;;;14.25;3.72;;;;;;;-0.58;82.13;98283.03;5020340;28;20038;-61
2022/01/05 07:29:42;;;;;;;13.50;3.90;;;;;;;-0.63;82.81;98282.81;4982266;28;21059;-61
2022/01/05 07:32:07;;;;;;;24.08;6.65;;;;;;;-0.62;83.25;98279.16;4992807;28;20042;-60
2022/01/05 07:34:33;;;;;;;10.38;3.10;;;;;;;-0.69;82.79;98292.28;4988149;28;20472;-60
2022/01/05 07:36:59;;;;;;;24.95;7.95;;;;;;;-0.60;85.10;98291.13;4986254;28;20069;-61
2022/01/05 07:39:24;;;;;;;25.98;8.15;;;;;;;-0.61;83.33;98299.22;5017933;28;20105;-60
2022/01/05 07:41:50;;;;;;;21.85;3.83;;;;;;;-0.72;83.44;98304.00;4996196;28;20039;-60
2022/01/05 07:44:15;;;;;;;13.18;3.47;;;;;;;-0.77;83.90;98316.94;4988394;28;20084;-60
2022/01/05 07:46:41;;;;;;;22.52;7.75;;;;;;;-0.72;83.34;98319.81;4982596;28;20389;-61
2022/01/05 07:49:07;;;;;;;41.17;12.05;;;;;;;-0.66;83.96;98324.28;5003878;28;20038;-60
2022/01/05 07:51:32;;;;;;;37.25;12.63;;;;;;;-0.60;84.50;98322.72;4995422;28;20077;-60
2022/01/05 07:53:58;;;;;;;23.50;4.45;;;;;;;-0.56;84.24;98323.13;4994375;28;20108;-62
2022/01/05 07:56:24;;;;;;;11.55;3.92;;;;;;;-0.59;84.15;98326.16;4996056;28;20818;-60
2022/01/05 07:58:50;;;;;;;12.68;3.80;;;;;;;-0.52;83.66;98324.38;4993407;28;20084;-60
2022/01/05 08:01:18;;;;;;;17.17;4.97;;;;;;;-0.56;83.42;98323.13;5025890;28;20034;-60
2022/01/05 08:03:44;;;;;;;18.30;4.15;;;;;;;-0.49;82.88;98331.91;4985677;28;20027;-60
2022/01/05 08:06:09;;;;;;;26.05;8.38;;;;;;;-0.40;82.61;98330.75;4992811;28;20273;-60
2022/01/05 08:08:35;;;;;;;46.08;13.23;;;;;;;-0.40;83.06;98329.91;4987967;28;20091;-59
2022/01/05 08:11:00;;;;;;;25.30;11.55;;;;;;;-0.30;83.69;98331.19;4992113;28;20421;-59
2022/01/05 08:13:26;;;;;;;29.58;12.85;;;;;;;-0.23;81.53;98332.03;5003514;28;20030;-59
2022/01/05 08:15:51;;;;;;;23.80;5.70;;;;;;;-0.18;81.11;98335.91;4991788;28;20505;-59
2022/01/05 08:18:18;;;;;;;21.55;5.10;;;;;;;-0.20;81.23;98341.38;5022436;28;20030;-59
2022/01/05 08:20:44;;;;;;;22.38;5.65;;;;;;;-0.07;80.96;98344.06;4988783;28;20452;-61
2022/01/05 08:23:09;;;;;;;11.82;5.10;;;;;;;-0.03;80.41;98350.56;4994208;28;20026;-61
2022/01/05 08:25:34;;;;;;;26.67;11.45;;;;;;;0.05;81.25;98357.50;4988777;28;20038;-59
2022/01/05 08:28:01;;;;;;;66.93;24.48;;;;;;;0.11;80.45;98358.53;4996726;28;20256;-58
2022/01/05 08:30:27;;;;;;;18.52;5.60;;;;;;;0.25;80.04;98369.94;4990231;28;20520;-59
2022/01/05 08:32:53;;;;;;;25.40;9.18;;;;;;;0.32;79.22;98368.13;5001374;28;20033;-59
2022/01/05 08:35:21;;;;;;;13.63;4.95;;;;;;;0.54;78.91;98371.47;4992985;28;20113;-61
2022/01/05 08:37:47;;;;;;;24.20;8.82;;;;;;;0.47;78.50;98374.06;4997587;28;20034;-61
2022/01/05 08:40:20;;;;;;;20.40;6.65;;;;;;;0.50;78.51;98376.34;4993520;28;20181;-60
2022/01/05 08:42:45;;;;;;;15.30;6.05;;;;;;;0.42;80.13;98379.13;4997834;28;20030;-61
2022/01/05 08:45:11;;;;;;;20.02;9.40;;;;;;;0.42;79.84;98379.97;4990186;28;20148;-61
2022/01/05 08:47:37;;;;;;;34.55;14.07;;;;;;;0.48;80.14;98377.53;4992939;28;20061;-61
2022/01/05 08:50:03;;;;;;;27.85;9.82;;;;;;;0.57;78.83;98379.78;4991342;28;20121;-60
2022/01/05 08:52:28;;;;;;;23.95;10.98;;;;;;;0.72;78.26;98381.44;4991827;28;20524;-60
2022/01/05 08:54:54;;;;;;;9.75;3.15;;;;;;;0.71;78.83;98393.81;4992294;28;20041;-60
2022/01/05 08:57:19;;;;;;;11.82;2.92;;;;;;;0.80;78.32;98410.25;4994190;28;20576;-60
2022/01/05 08:59:45;;;;;;;14.57;3.47;;;;;;;1.03;78.76;98413.38;4997247;28;20385;-60
2022/01/05 09:02:13;;;;;;;17.30;3.80;;;;;;;0.89;79.14;98403.81;4989787;28;20034;-60
2022/01/05 09:04:39;;;;;;;18.05;3.53;;;;;;;0.90;78.76;98416.00;4990241;28;20069;-60
2022/01/05 09:07:05;;;;;;;11.93;3.60;;;;;;;0.98;78.90;98415.00;4994550;28;20242;-60
2022/01/05 09:09:30;;;;;;;16.88;3.35;;;;;;;1.00;78.78;98418.22;4989315;28;20034;-60
2022/01/05 09:11:56;;;;;;;15.13;2.80;;;;;;;1.09;78.51;98419.66;4992166;28;20037;-60
2022/01/05 09:14:21;;;;;;;9.82;3.75;;;;;;;1.02;78.22;98427.59;4991705;28;20073;-60
2022/01/05 09:16:47;;;;;;;14.48;3.67;;;;;;;1.13;78.12;98422.72;4992558;28;20042;-60
2022/01/05 09:19:12;;;;;;;15.90;3.20;;;;;;;1.10;77.82;98423.94;4998481;28;20089;-60
2022/01/05 09:21:38;;;;;;;19.58;3.17;;;;;;;1.13;78.53;98428.00;4987960;28;20064;-60
2022/01/05 09:24:03;;;;;;;18.85;3.60;;;;;;;1.12;78.61;98426.38;4990858;28;20380;-60
2022/01/05 09:26:29;;;;;;;11.52;2.80;;;;;;;1.06;78.93;98426.16;4993612;28;20058;-60
2022/01/05 09:28:54;;;;;;;14.80;3.58;;;;;;;1.11;79.54;98419.47;4995223;28;20044;-60
2022/01/05 09:31:20;;;;;;;19.55;3.38;;;;;;;1.25;79.11;98424.56;4987478;28;20570;-60
2022/01/05 09:33:45;;;;;;;18.88;3.50;;;;;;;1.21;78.75;98435.72;4995179;28;20022;-60
2022/01/05 09:36:17;;;;;;;12.80;3.13;;;;;;;1.31;78.76;98441.41;4993455;28;20042;-60
2022/01/05 09:44:08;;;;;;;15.25;3.17;;;;;;;1.31;78.46;98459.91;4986681;28;20045;-60
2022/01/05 09:47:03;;;;;;;14.50;3.00;;;;;;;1.32;78.73;98479.19;4991325;28;20397;-60
2022/01/05 09:49:37;;;;;;;14.98;3.08;;;;;;;1.29;78.31;98472.50;4992125;28;20050;-59
2022/01/05 09:52:07;;;;;;;9.13;2.67;;;;;;;1.38;78.72;98473.94;4990419;28;20120;-59
2022/01/05 09:54:34;;;;;;;11.52;3.00;;;;;;;1.38;78.29;98478.41;5005783;28;20471;-60
2022/01/05 09:56:59;;;;;;;14.02;3.25;;;;;;;1.37;78.37;98472.28;4987141;28;20126;-59
2022/01/05 09:59:25;;;;;;;17.48;3.00;;;;;;;1.37;77.83;98488.13;4992728;28;20392;-60
2022/01/05 10:01:50;;;;;;;13.00;3.33;;;;;;;1.38;78.20;98484.50;4991965;28;20492;-59
2022/01/05 10:04:16;;;;;;;14.95;2.80;;;;;;;1.41;79.40;98472.72;5008032;28;20851;-59
2022/01/05 10:06:41;;;;;;;14.15;2.70;;;;;;;1.49;78.18;98465.41;4986187;28;20136;-60
2022/01/05 10:09:08;;;;;;;7.18;2.97;;;;;;;1.57;77.26;98466.22;4991412;28;20057;-59
2022/01/05 10:11:33;;;;;;;15.15;3.22;;;;;;;1.60;77.78;98464.00;5027054;28;20097;-60
2022/01/05 10:14:00;;;;;;;12.32;3.55;;;;;;;1.64;78.10;98448.53;4991229;28;20465;-59
2022/01/05 10:16:25;;;;;;;15.80;3.53;;;;;;;1.74;76.21;98451.56;4989917;28;20104;-59
2022/01/05 10:18:51;;;;;;;8.50;2.90;;;;;;;1.76;75.70;98452.19;5008606;28;20626;-59
2022/01/05 10:21:17;;;;;;;14.57;4.47;;;;;;;1.75;75.97;98453.22;4988148;28;20038;-60
2022/01/05 10:23:50;;;;;;;12.55;2.85;;;;;;;1.84;75.84;98454.63;4989764;28;20104;-60
2022/01/05 10:26:26;;;;;;;11.98;3.50;;;;;;;1.93;75.36;98461.31;4989000;28;20450;-59
2022/01/05 10:29:15;;;;;;;5.38;2.83;;;;;;;1.96;74.72;98461.94;4985098;28;20030;-60
2022/01/05 10:31:41;;;;;;;12.18;2.70;;;;;;;2.04;74.96;98459.88;4989121;28;20052;-59
2022/01/05 10:34:20;;;;;;;6.35;2.38;;;;;;;2.14;74.19;98462.91;4986488;28;20026;-60
2022/01/05 10:36:52;;;;;;;7.28;2.20;;;;;;;2.21;74.89;98462.09;4992742;28;20050;-60
2022/01/05 10:39:28;;;;;;;13.32;3.55;;;;;;;2.29;74.55;98467.97;4991487;28;20034;-59
2022/01/05 10:41:54;;;;;;;8.40;2.83;;;;;;;2.15;74.87;98469.03;5027158;28;20480;-61
2022/01/05 10:44:21;;;;;;;13.25;3.85;;;;;;;2.10;74.69;98477.56;4985273;28;20057;-60
2022/01/05 10:46:56;;;;;;;14.70;3.67;;;;;;;2.18;75.54;98481.03;4990590;28;20042;-60
2022/01/05 10:49:30;;;;;;;12.35;3.08;;;;;;;2.17;75.98;98482.81;4989697;28;20043;-60
2022/01/05 10:51:59;;;;;;;12.13;3.53;;;;;;;2.13;75.21;98486.94;4992644;28;20055;-60
2022/01/05 10:54:26;;;;;;;11.77;3.15;;;;;;;2.15;75.92;98484.88;4995488;28;20045;-60
2022/01/05 10:56:51;;;;;;;16.48;3.40;;;;;;;2.21;75.20;98489.34;4994365;28;20111;-60
2022/01/05 10:59:37;;;;;;;9.35;3.00;;;;;;;2.34;75.93;98484.00;4988026;28;20030;-60
2022/01/05 11:02:28;;;;;;;11.35;2.72;;;;;;;2.33;76.42;98481.59;4994653;28;20043;-60
2022/01/05 11:05:14;;;;;;;15.27;3.00;;;;;;;2.57;74.91;98482.72;4993154;28;20473;-60
2022/01/05 11:07:42;;;;;;;12.95;3.05;;;;;;;2.69;73.92;98472.31;4994216;28;20488;-60
2022/01/05 11:10:14;;;;;;;13.18;3.05;;;;;;;2.71;73.39;98465.78;4990677;28;20472;-60
2022/01/05 11:12:42;;;;;;;11.68;3.10;;;;;;;2.70;74.26;98469.47;5006379;28;20022;-60
2022/01/05 11:15:31;;;;;;;11.38;3.38;;;;;;;2.66;74.50;98470.91;4990231;28;20069;-60
2022/01/05 11:18:18;;;;;;;17.13;3.42;;;;;;;2.64;73.90;98467.66;4985582;28;20042;-60
2022/01/05 11:20:49;;;;;;;15.02;3.20;;;;;;;2.64;74.74;98467.66;4986663;28;20045;-60
2022/01/05 11:23:15;;;;;;;18.08;2.75;;;;;;;2.72;74.30;98470.06;4989350;28;20037;-60
2022/01/05 11:25:42;;;;;;;15.75;3.17;;;;;;;2.85;73.73;98468.41;4988000;28;20247;-60
2022/01/05 11:28:07;;;;;;;11.57;3.55;;;;;;;2.73;73.40;98474.34;4990017;28;20489;-61
2022/01/05 11:30:33;;;;;;;18.85;3.97;;;;;;;2.68;74.30;98466.22;5005300;28;20042;-60
2022/01/05 11:32:59;;;;;;;22.30;3.95;;;;;;;2.61;75.78;98483.94;5011417;28;20477;-60
2022/01/05 11:35:24;;;;;;;17.25;3.70;;;;;;;2.53;74.95;98492.13;4989315;28;20508;-60
2022/01/05 11:37:50;;;;;;;9.38;2.85;;;;;;;2.43;75.41;98486.47;4991849;28;20060;-60